sensor_id;sensor_type;location;lat;lon;timestamp;P1;durP1;ratioP1;P2;durP2;ratioP2
25091;SDS011;13082;52.374;4.946;2023-05-07T00:01:48;26.63;;;19.00;;
25091;SDS011;13082;52.374;4.946;2023-05-07T00:04:14;28.87;;;19.97;;
25091;SDS011;13082;52.374;4.946;2023-05-07T00:06:39;28.67;;;20.50;;
25091;SDS011;13082;52.374;4.946;2023-05-07T00:09:05;27.77;;;20.63;;
25091;SDS011;13082;52.374;4.946;2023-05-07T00:11:31;31.47;;;21.30;;
25091;SDS011;13082;52.374;4.946;2023-05-07T00:13:58;35.20;;;21.67;;
25091;SDS011;13082;52.374;4.946;2023-05-07T00:16:23;33.07;;;21.07;;
25091;SDS011;13082;52.374;4.946;2023-05-07T00:18:49;34.27;;;21.60;;
25091;SDS011;13082;52.374;4.946;2023-05-07T00:21:15;36.57;;;22.53;;
25091;SDS011;13082;52.374;4.946;2023-05-07T00:23:41;34.00;;;21.87;;
25091;SDS011;13082;52.374;4.946;2023-05-07T00:26:06;32.67;;;21.70;;
25091;SDS011;13082;52.374;4.946;2023-05-07T00:28:32;41.53;;;23.10;;
25091;SDS011;13082;52.374;4.946;2023-05-07T00:30:57;34.17;;;22.37;;
25091;SDS011;13082;52.374;4.946;2023-05-07T00:33:23;44.37;;;23.57;;
25091;SDS011;13082;52.374;4.946;2023-05-07T00:35:49;35.37;;;22.60;;
25091;SDS011;13082;52.374;4.946;2023-05-07T00:38:15;36.23;;;24.00;;
25091;SDS011;13082;52.374;4.946;2023-05-07T00:40:40;35.70;;;24.13;;
25091;SDS011;13082;52.374;4.946;2023-05-07T00:43:06;39.13;;;24.80;;
25091;SDS011;13082;52.374;4.946;2023-05-07T00:45:32;43.97;;;24.07;;
25091;SDS011;13082;52.374;4.946;2023-05-07T00:47:59;33.83;;;23.07;;
25091;SDS011;13082;52.374;4.946;2023-05-07T00:50:26;36.33;;;23.57;;
25091;SDS011;13082;52.374;4.946;2023-05-07T00:52:53;38.60;;;24.50;;
25091;SDS011;13082;52.374;4.946;2023-05-07T00:55:19;39.43;;;23.47;;
25091;SDS011;13082;52.374;4.946;2023-05-07T00:57:46;42.07;;;23.97;;
25091;SDS011;13082;52.374;4.946;2023-05-07T01:00:12;37.03;;;23.63;;
25091;SDS011;13082;52.374;4.946;2023-05-07T01:02:38;35.17;;;23.67;;
25091;SDS011;13082;52.374;4.946;2023-05-07T01:05:04;39.23;;;22.57;;
25091;SDS011;13082;52.374;4.946;2023-05-07T01:07:32;39.53;;;23.43;;
25091;SDS011;13082;52.374;4.946;2023-05-07T01:09:58;39.07;;;22.53;;
25091;SDS011;13082;52.374;4.946;2023-05-07T01:12:25;37.53;;;23.83;;
25091;SDS011;13082;52.374;4.946;2023-05-07T01:14:51;40.93;;;22.77;;
25091;SDS011;13082;52.374;4.946;2023-05-07T01:17:17;34.90;;;21.43;;
25091;SDS011;13082;52.374;4.946;2023-05-07T01:19:43;36.13;;;21.90;;
25091;SDS011;13082;52.374;4.946;2023-05-07T01:22:09;32.40;;;22.20;;
25091;SDS011;13082;52.374;4.946;2023-05-07T01:24:40;33.63;;;22.57;;
25091;SDS011;13082;52.374;4.946;2023-05-07T01:27:06;28.53;;;20.53;;
25091;SDS011;13082;52.374;4.946;2023-05-07T01:29:32;28.53;;;20.73;;
25091;SDS011;13082;52.374;4.946;2023-05-07T01:31:58;31.07;;;19.80;;
25091;SDS011;13082;52.374;4.946;2023-05-07T01:34:25;31.93;;;19.93;;
25091;SDS011;13082;52.374;4.946;2023-05-07T01:36:56;26.37;;;19.10;;
25091;SDS011;13082;52.374;4.946;2023-05-07T01:39:26;25.10;;;18.50;;
25091;SDS011;13082;52.374;4.946;2023-05-07T01:41:55;26.83;;;18.53;;
25091;SDS011;13082;52.374;4.946;2023-05-07T01:44:22;26.83;;;18.40;;
25091;SDS011;13082;52.374;4.946;2023-05-07T01:46:48;27.17;;;18.30;;
25091;SDS011;13082;52.374;4.946;2023-05-07T01:49:15;25.80;;;18.20;;
25091;SDS011;13082;52.374;4.946;2023-05-07T01:51:41;26.73;;;18.20;;
25091;SDS011;13082;52.374;4.946;2023-05-07T01:54:07;26.20;;;17.33;;
25091;SDS011;13082;52.374;4.946;2023-05-07T01:56:33;26.80;;;18.87;;
25091;SDS011;13082;52.374;4.946;2023-05-07T01:58:59;24.73;;;17.40;;
25091;SDS011;13082;52.374;4.946;2023-05-07T02:01:25;25.40;;;16.67;;
25091;SDS011;13082;52.374;4.946;2023-05-07T02:03:51;22.90;;;17.03;;
25091;SDS011;13082;52.374;4.946;2023-05-07T02:06:16;25.00;;;17.47;;
25091;SDS011;13082;52.374;4.946;2023-05-07T02:08:42;25.03;;;16.43;;
25091;SDS011;13082;52.374;4.946;2023-05-07T02:11:07;24.30;;;16.17;;
25091;SDS011;13082;52.374;4.946;2023-05-07T02:13:33;20.57;;;15.67;;
25091;SDS011;13082;52.374;4.946;2023-05-07T02:16:02;20.90;;;14.80;;
25091;SDS011;13082;52.374;4.946;2023-05-07T02:18:28;19.73;;;13.67;;
25091;SDS011;13082;52.374;4.946;2023-05-07T02:20:54;22.33;;;14.83;;
25091;SDS011;13082;52.374;4.946;2023-05-07T02:23:19;20.30;;;15.00;;
25091;SDS011;13082;52.374;4.946;2023-05-07T02:25:45;17.70;;;13.33;;
25091;SDS011;13082;52.374;4.946;2023-05-07T02:28:11;19.53;;;13.67;;
25091;SDS011;13082;52.374;4.946;2023-05-07T02:30:37;16.83;;;12.60;;
25091;SDS011;13082;52.374;4.946;2023-05-07T02:33:02;19.20;;;13.00;;
25091;SDS011;13082;52.374;4.946;2023-05-07T02:35:28;15.60;;;12.57;;
25091;SDS011;13082;52.374;4.946;2023-05-07T02:37:54;16.70;;;11.37;;
25091;SDS011;13082;52.374;4.946;2023-05-07T02:40:19;15.77;;;11.33;;
25091;SDS011;13082;52.374;4.946;2023-05-07T02:42:45;14.67;;;10.90;;
25091;SDS011;13082;52.374;4.946;2023-05-07T02:45:11;15.07;;;11.30;;
25091;SDS011;13082;52.374;4.946;2023-05-07T02:47:36;14.37;;;10.43;;
25091;SDS011;13082;52.374;4.946;2023-05-07T02:50:02;13.70;;;10.17;;
25091;SDS011;13082;52.374;4.946;2023-05-07T02:52:28;12.27;;;9.80;;
25091;SDS011;13082;52.374;4.946;2023-05-07T02:54:54;12.40;;;10.03;;
25091;SDS011;13082;52.374;4.946;2023-05-07T02:57:20;11.37;;;8.63;;
25091;SDS011;13082;52.374;4.946;2023-05-07T02:59:46;11.63;;;8.17;;
25091;SDS011;13082;52.374;4.946;2023-05-07T03:02:11;9.37;;;8.43;;
25091;SDS011;13082;52.374;4.946;2023-05-07T03:04:39;9.63;;;8.37;;
25091;SDS011;13082;52.374;4.946;2023-05-07T03:07:05;9.37;;;8.37;;
25091;SDS011;13082;52.374;4.946;2023-05-07T03:09:30;9.97;;;8.30;;
25091;SDS011;13082;52.374;4.946;2023-05-07T03:11:56;13.43;;;8.67;;
25091;SDS011;13082;52.374;4.946;2023-05-07T03:14:22;9.33;;;7.80;;
25091;SDS011;13082;52.374;4.946;2023-05-07T03:16:48;11.03;;;8.43;;
25091;SDS011;13082;52.374;4.946;2023-05-07T03:19:14;10.30;;;7.30;;
25091;SDS011;13082;52.374;4.946;2023-05-07T03:21:40;10.70;;;8.37;;
25091;SDS011;13082;52.374;4.946;2023-05-07T03:24:05;8.27;;;7.37;;
25091;SDS011;13082;52.374;4.946;2023-05-07T03:26:31;9.57;;;8.13;;
25091;SDS011;13082;52.374;4.946;2023-05-07T03:28:57;9.70;;;7.60;;
25091;SDS011;13082;52.374;4.946;2023-05-07T03:31:22;9.73;;;7.07;;
25091;SDS011;13082;52.374;4.946;2023-05-07T03:33:55;9.47;;;7.93;;
25091;SDS011;13082;52.374;4.946;2023-05-07T03:36:22;8.37;;;6.80;;
25091;SDS011;13082;52.374;4.946;2023-05-07T03:38:48;9.73;;;7.27;;
25091;SDS011;13082;52.374;4.946;2023-05-07T03:41:14;9.97;;;7.30;;
25091;SDS011;13082;52.374;4.946;2023-05-07T03:43:40;8.40;;;7.37;;
25091;SDS011;13082;52.374;4.946;2023-05-07T03:46:06;9.93;;;7.50;;
25091;SDS011;13082;52.374;4.946;2023-05-07T03:48:31;8.43;;;7.17;;
25091;SDS011;13082;52.374;4.946;2023-05-07T03:50:57;8.00;;;6.67;;
25091;SDS011;13082;52.374;4.946;2023-05-07T03:53:23;6.63;;;6.00;;
25091;SDS011;13082;52.374;4.946;2023-05-07T03:55:49;8.17;;;6.70;;
25091;SDS011;13082;52.374;4.946;2023-05-07T03:58:14;11.20;;;6.70;;
25091;SDS011;13082;52.374;4.946;2023-05-07T04:00:40;8.20;;;6.60;;
25091;SDS011;13082;52.374;4.946;2023-05-07T04:03:06;8.23;;;6.60;;
25091;SDS011;13082;52.374;4.946;2023-05-07T04:05:32;8.73;;;6.70;;
25091;SDS011;13082;52.374;4.946;2023-05-07T04:07:58;8.67;;;6.50;;
25091;SDS011;13082;52.374;4.946;2023-05-07T04:10:24;9.00;;;5.53;;
25091;SDS011;13082;52.374;4.946;2023-05-07T04:12:50;11.03;;;6.73;;
25091;SDS011;13082;52.374;4.946;2023-05-07T04:15:16;7.53;;;6.37;;
25091;SDS011;13082;52.374;4.946;2023-05-07T04:17:41;12.27;;;6.70;;
25091;SDS011;13082;52.374;4.946;2023-05-07T04:20:14;10.50;;;6.47;;
25091;SDS011;13082;52.374;4.946;2023-05-07T04:22:41;7.20;;;6.47;;
25091;SDS011;13082;52.374;4.946;2023-05-07T04:25:07;8.13;;;6.47;;
25091;SDS011;13082;52.374;4.946;2023-05-07T04:27:36;9.37;;;6.70;;
25091;SDS011;13082;52.374;4.946;2023-05-07T04:30:02;8.90;;;7.03;;
25091;SDS011;13082;52.374;4.946;2023-05-07T04:32:29;9.13;;;6.33;;
25091;SDS011;13082;52.374;4.946;2023-05-07T04:34:55;7.67;;;6.87;;
25091;SDS011;13082;52.374;4.946;2023-05-07T04:37:21;8.10;;;6.87;;
25091;SDS011;13082;52.374;4.946;2023-05-07T04:39:47;11.87;;;7.70;;
25091;SDS011;13082;52.374;4.946;2023-05-07T04:42:16;10.93;;;8.20;;
25091;SDS011;13082;52.374;4.946;2023-05-07T04:44:43;11.97;;;8.20;;
25091;SDS011;13082;52.374;4.946;2023-05-07T04:47:10;12.07;;;8.40;;
25091;SDS011;13082;52.374;4.946;2023-05-07T04:49:36;9.50;;;8.20;;
25091;SDS011;13082;52.374;4.946;2023-05-07T04:52:02;10.93;;;9.53;;
25091;SDS011;13082;52.374;4.946;2023-05-07T04:54:28;9.63;;;8.63;;
25091;SDS011;13082;52.374;4.946;2023-05-07T04:56:54;10.93;;;9.50;;
25091;SDS011;13082;52.374;4.946;2023-05-07T04:59:20;11.00;;;9.23;;
25091;SDS011;13082;52.374;4.946;2023-05-07T05:01:46;11.23;;;9.63;;
25091;SDS011;13082;52.374;4.946;2023-05-07T05:04:11;12.83;;;10.17;;
25091;SDS011;13082;52.374;4.946;2023-05-07T05:06:38;14.17;;;10.83;;
25091;SDS011;13082;52.374;4.946;2023-05-07T05:09:03;12.87;;;10.60;;
25091;SDS011;13082;52.374;4.946;2023-05-07T05:11:30;14.90;;;11.33;;
25091;SDS011;13082;52.374;4.946;2023-05-07T05:13:56;14.50;;;10.70;;
25091;SDS011;13082;52.374;4.946;2023-05-07T05:16:21;12.07;;;10.47;;
25091;SDS011;13082;52.374;4.946;2023-05-07T05:18:47;15.43;;;11.60;;
25091;SDS011;13082;52.374;4.946;2023-05-07T05:21:13;16.70;;;11.53;;
25091;SDS011;13082;52.374;4.946;2023-05-07T05:23:39;15.83;;;11.70;;
25091;SDS011;13082;52.374;4.946;2023-05-07T05:26:04;14.10;;;10.80;;
25091;SDS011;13082;52.374;4.946;2023-05-07T05:28:30;13.20;;;11.37;;
25091;SDS011;13082;52.374;4.946;2023-05-07T05:30:55;17.73;;;11.93;;
25091;SDS011;13082;52.374;4.946;2023-05-07T05:33:21;13.03;;;11.37;;
25091;SDS011;13082;52.374;4.946;2023-05-07T05:35:46;12.83;;;10.80;;
25091;SDS011;13082;52.374;4.946;2023-05-07T05:38:12;13.93;;;11.50;;
25091;SDS011;13082;52.374;4.946;2023-05-07T05:40:38;14.80;;;10.43;;
25091;SDS011;13082;52.374;4.946;2023-05-07T05:43:04;13.70;;;10.63;;
25091;SDS011;13082;52.374;4.946;2023-05-07T05:45:30;11.07;;;9.93;;
25091;SDS011;13082;52.374;4.946;2023-05-07T05:47:56;11.50;;;9.73;;
25091;SDS011;13082;52.374;4.946;2023-05-07T05:50:22;11.80;;;10.23;;
25091;SDS011;13082;52.374;4.946;2023-05-07T05:52:48;14.77;;;10.83;;
25091;SDS011;13082;52.374;4.946;2023-05-07T05:55:13;15.83;;;10.37;;
25091;SDS011;13082;52.374;4.946;2023-05-07T05:57:39;12.90;;;10.50;;
25091;SDS011;13082;52.374;4.946;2023-05-07T06:00:05;12.27;;;9.83;;
25091;SDS011;13082;52.374;4.946;2023-05-07T06:02:32;12.07;;;9.63;;
25091;SDS011;13082;52.374;4.946;2023-05-07T06:04:57;12.37;;;9.87;;
25091;SDS011;13082;52.374;4.946;2023-05-07T06:07:23;12.30;;;9.70;;
25091;SDS011;13082;52.374;4.946;2023-05-07T06:09:48;12.90;;;9.67;;
25091;SDS011;13082;52.374;4.946;2023-05-07T06:12:14;13.40;;;9.77;;
25091;SDS011;13082;52.374;4.946;2023-05-07T06:14:39;14.20;;;10.00;;
25091;SDS011;13082;52.374;4.946;2023-05-07T06:17:07;13.67;;;9.60;;
25091;SDS011;13082;52.374;4.946;2023-05-07T06:19:33;11.10;;;9.17;;
25091;SDS011;13082;52.374;4.946;2023-05-07T06:21:58;13.13;;;9.70;;
25091;SDS011;13082;52.374;4.946;2023-05-07T06:24:26;10.63;;;8.77;;
25091;SDS011;13082;52.374;4.946;2023-05-07T06:26:51;13.97;;;8.93;;
25091;SDS011;13082;52.374;4.946;2023-05-07T06:29:17;12.23;;;9.50;;
25091;SDS011;13082;52.374;4.946;2023-05-07T06:31:43;12.30;;;10.43;;
25091;SDS011;13082;52.374;4.946;2023-05-07T06:34:08;12.00;;;10.07;;
25091;SDS011;13082;52.374;4.946;2023-05-07T06:36:34;12.83;;;9.93;;
25091;SDS011;13082;52.374;4.946;2023-05-07T06:39:00;12.03;;;9.73;;
25091;SDS011;13082;52.374;4.946;2023-05-07T06:41:26;12.17;;;10.47;;
25091;SDS011;13082;52.374;4.946;2023-05-07T06:43:51;12.30;;;9.70;;
25091;SDS011;13082;52.374;4.946;2023-05-07T06:46:17;13.27;;;9.70;;
25091;SDS011;13082;52.374;4.946;2023-05-07T06:48:43;14.87;;;9.90;;
25091;SDS011;13082;52.374;4.946;2023-05-07T06:51:08;12.97;;;10.60;;
25091;SDS011;13082;52.374;4.946;2023-05-07T06:53:34;12.60;;;10.33;;
25091;SDS011;13082;52.374;4.946;2023-05-07T06:56:00;13.13;;;10.37;;
25091;SDS011;13082;52.374;4.946;2023-05-07T06:58:26;14.83;;;11.00;;
25091;SDS011;13082;52.374;4.946;2023-05-07T07:00:51;15.03;;;12.20;;
25091;SDS011;13082;52.374;4.946;2023-05-07T07:03:17;12.20;;;10.87;;
25091;SDS011;13082;52.374;4.946;2023-05-07T07:05:43;14.37;;;11.77;;
25091;SDS011;13082;52.374;4.946;2023-05-07T07:08:09;14.53;;;11.70;;
25091;SDS011;13082;52.374;4.946;2023-05-07T07:10:35;14.53;;;12.10;;
25091;SDS011;13082;52.374;4.946;2023-05-07T07:13:00;16.97;;;12.00;;
25091;SDS011;13082;52.374;4.946;2023-05-07T07:15:26;12.87;;;11.50;;
25091;SDS011;13082;52.374;4.946;2023-05-07T07:17:52;13.90;;;11.20;;
25091;SDS011;13082;52.374;4.946;2023-05-07T07:20:17;17.10;;;12.20;;
25091;SDS011;13082;52.374;4.946;2023-05-07T07:22:43;18.27;;;12.73;;
25091;SDS011;13082;52.374;4.946;2023-05-07T07:25:09;15.43;;;11.73;;
25091;SDS011;13082;52.374;4.946;2023-05-07T07:27:36;14.13;;;11.27;;
25091;SDS011;13082;52.374;4.946;2023-05-07T07:30:01;14.77;;;11.30;;
25091;SDS011;13082;52.374;4.946;2023-05-07T07:32:27;15.67;;;11.63;;
25091;SDS011;13082;52.374;4.946;2023-05-07T07:34:53;14.70;;;11.70;;
25091;SDS011;13082;52.374;4.946;2023-05-07T07:37:18;14.37;;;12.53;;
25091;SDS011;13082;52.374;4.946;2023-05-07T07:39:44;15.50;;;12.20;;
25091;SDS011;13082;52.374;4.946;2023-05-07T07:42:10;12.73;;;11.30;;
25091;SDS011;13082;52.374;4.946;2023-05-07T07:44:35;13.93;;;12.43;;
25091;SDS011;13082;52.374;4.946;2023-05-07T07:47:01;15.20;;;11.17;;
25091;SDS011;13082;52.374;4.946;2023-05-07T07:49:26;15.87;;;12.07;;
25091;SDS011;13082;52.374;4.946;2023-05-07T07:51:52;13.43;;;12.07;;
25091;SDS011;13082;52.374;4.946;2023-05-07T07:54:18;13.07;;;11.33;;
25091;SDS011;13082;52.374;4.946;2023-05-07T07:56:44;14.27;;;10.93;;
25091;SDS011;13082;52.374;4.946;2023-05-07T07:59:09;16.67;;;11.20;;
25091;SDS011;13082;52.374;4.946;2023-05-07T08:01:35;12.80;;;11.07;;
25091;SDS011;13082;52.374;4.946;2023-05-07T08:04:01;13.90;;;12.00;;
25091;SDS011;13082;52.374;4.946;2023-05-07T08:06:28;15.70;;;12.73;;
25091;SDS011;13082;52.374;4.946;2023-05-07T08:08:54;13.40;;;11.60;;
25091;SDS011;13082;52.374;4.946;2023-05-07T08:11:20;14.50;;;11.23;;
25091;SDS011;13082;52.374;4.946;2023-05-07T08:13:46;15.47;;;12.93;;
25091;SDS011;13082;52.374;4.946;2023-05-07T08:16:12;14.70;;;12.20;;
25091;SDS011;13082;52.374;4.946;2023-05-07T08:18:38;15.43;;;11.90;;
25091;SDS011;13082;52.374;4.946;2023-05-07T08:21:03;14.07;;;11.67;;
25091;SDS011;13082;52.374;4.946;2023-05-07T08:23:29;17.73;;;12.17;;
25091;SDS011;13082;52.374;4.946;2023-05-07T08:25:55;21.23;;;11.50;;
25091;SDS011;13082;52.374;4.946;2023-05-07T08:28:21;13.60;;;12.20;;
25091;SDS011;13082;52.374;4.946;2023-05-07T08:30:46;13.27;;;11.97;;
25091;SDS011;13082;52.374;4.946;2023-05-07T08:33:12;12.80;;;11.33;;
25091;SDS011;13082;52.374;4.946;2023-05-07T08:35:38;14.57;;;12.87;;
25091;SDS011;13082;52.374;4.946;2023-05-07T08:38:03;13.80;;;12.33;;
25091;SDS011;13082;52.374;4.946;2023-05-07T08:40:29;14.63;;;12.70;;
25091;SDS011;13082;52.374;4.946;2023-05-07T08:43:01;16.07;;;13.00;;
25091;SDS011;13082;52.374;4.946;2023-05-07T08:45:27;13.83;;;12.30;;
25091;SDS011;13082;52.374;4.946;2023-05-07T08:47:58;13.23;;;11.77;;
25091;SDS011;13082;52.374;4.946;2023-05-07T08:50:25;16.30;;;12.03;;
25091;SDS011;13082;52.374;4.946;2023-05-07T08:52:50;14.60;;;12.17;;
25091;SDS011;13082;52.374;4.946;2023-05-07T08:55:16;14.47;;;11.23;;
25091;SDS011;13082;52.374;4.946;2023-05-07T08:57:42;14.33;;;12.70;;
25091;SDS011;13082;52.374;4.946;2023-05-07T09:00:08;15.00;;;12.10;;
25091;SDS011;13082;52.374;4.946;2023-05-07T09:02:35;13.30;;;11.10;;
25091;SDS011;13082;52.374;4.946;2023-05-07T09:05:01;12.47;;;10.50;;
25091;SDS011;13082;52.374;4.946;2023-05-07T09:07:27;13.20;;;11.03;;
25091;SDS011;13082;52.374;4.946;2023-05-07T09:09:52;13.83;;;11.27;;
25091;SDS011;13082;52.374;4.946;2023-05-07T09:12:20;12.83;;;10.50;;
25091;SDS011;13082;52.374;4.946;2023-05-07T09:14:46;12.37;;;10.67;;
25091;SDS011;13082;52.374;4.946;2023-05-07T09:17:12;16.00;;;13.73;;
25091;SDS011;13082;52.374;4.946;2023-05-07T09:19:38;13.67;;;12.27;;
25091;SDS011;13082;52.374;4.946;2023-05-07T09:22:04;13.43;;;12.03;;
25091;SDS011;13082;52.374;4.946;2023-05-07T09:24:32;15.47;;;12.60;;
25091;SDS011;13082;52.374;4.946;2023-05-07T09:27:02;16.90;;;12.40;;
25091;SDS011;13082;52.374;4.946;2023-05-07T09:29:29;13.53;;;11.47;;
25091;SDS011;13082;52.374;4.946;2023-05-07T09:32:00;15.87;;;12.87;;
25091;SDS011;13082;52.374;4.946;2023-05-07T09:34:27;14.47;;;11.87;;
25091;SDS011;13082;52.374;4.946;2023-05-07T09:36:53;13.50;;;12.10;;
25091;SDS011;13082;52.374;4.946;2023-05-07T09:39:19;14.70;;;12.80;;
25091;SDS011;13082;52.374;4.946;2023-05-07T09:41:45;10.80;;;9.70;;
25091;SDS011;13082;52.374;4.946;2023-05-07T09:44:12;12.53;;;9.90;;
25091;SDS011;13082;52.374;4.946;2023-05-07T09:46:39;10.57;;;9.47;;
25091;SDS011;13082;52.374;4.946;2023-05-07T09:49:08;11.43;;;9.03;;
25091;SDS011;13082;52.374;4.946;2023-05-07T09:51:45;10.48;;;8.75;;
25091;SDS011;13082;52.374;4.946;2023-05-07T09:54:14;16.52;;;12.02;;
25091;SDS011;13082;52.374;4.946;2023-05-07T09:56:40;13.05;;;11.75;;
25091;SDS011;13082;52.374;4.946;2023-05-07T09:59:07;12.95;;;11.57;;
25091;SDS011;13082;52.374;4.946;2023-05-07T10:01:35;13.45;;;12.05;;
25091;SDS011;13082;52.374;4.946;2023-05-07T10:04:01;13.02;;;11.48;;
25091;SDS011;13082;52.374;4.946;2023-05-07T10:06:29;13.02;;;11.68;;
25091;SDS011;13082;52.374;4.946;2023-05-07T10:08:55;13.27;;;11.73;;
25091;SDS011;13082;52.374;4.946;2023-05-07T10:11:22;14.38;;;12.88;;
25091;SDS011;13082;52.374;4.946;2023-05-07T10:13:48;13.70;;;11.52;;
25091;SDS011;13082;52.374;4.946;2023-05-07T10:16:14;12.55;;;11.20;;
25091;SDS011;13082;52.374;4.946;2023-05-07T10:18:40;13.98;;;11.52;;
25091;SDS011;13082;52.374;4.946;2023-05-07T10:21:19;13.27;;;11.90;;
25091;SDS011;13082;52.374;4.946;2023-05-07T10:23:51;14.38;;;12.88;;
25091;SDS011;13082;52.374;4.946;2023-05-07T10:26:23;14.07;;;11.70;;
25091;SDS011;13082;52.374;4.946;2023-05-07T10:28:50;15.68;;;12.95;;
25091;SDS011;13082;52.374;4.946;2023-05-07T10:34:07;16.58;;;13.90;;
25091;SDS011;13082;52.374;4.946;2023-05-07T10:36:39;15.60;;;13.98;;
25091;SDS011;13082;52.374;4.946;2023-05-07T10:39:05;15.27;;;13.68;;
25091;SDS011;13082;52.374;4.946;2023-05-07T10:41:31;15.80;;;13.73;;
25091;SDS011;13082;52.374;4.946;2023-05-07T10:43:57;14.60;;;13.02;;
25091;SDS011;13082;52.374;4.946;2023-05-07T10:46:26;16.38;;;14.38;;
25091;SDS011;13082;52.374;4.946;2023-05-07T10:51:31;15.73;;;13.27;;
25091;SDS011;13082;52.374;4.946;2023-05-07T10:56:35;13.85;;;12.30;;
25091;SDS011;13082;52.374;4.946;2023-05-07T10:59:30;17.20;;;13.32;;
25091;SDS011;13082;52.374;4.946;2023-05-07T11:04:23;13.50;;;12.05;;
25091;SDS011;13082;52.374;4.946;2023-05-07T11:13:02;16.25;;;12.55;;
25091;SDS011;13082;52.374;4.946;2023-05-07T11:15:07;14.05;;;12.52;;
25091;SDS011;13082;52.374;4.946;2023-05-07T11:17:34;12.63;;;11.30;;
25091;SDS011;13082;52.374;4.946;2023-05-07T11:20:16;12.32;;;11.05;;
25091;SDS011;13082;52.374;4.946;2023-05-07T11:22:42;11.88;;;10.07;;
25091;SDS011;13082;52.374;4.946;2023-05-07T11:25:07;15.07;;;12.00;;
25091;SDS011;13082;52.374;4.946;2023-05-07T11:27:33;12.80;;;11.00;;
25091;SDS011;13082;52.374;4.946;2023-05-07T11:29:59;15.50;;;11.50;;
25091;SDS011;13082;52.374;4.946;2023-05-07T11:32:29;16.90;;;11.85;;
25091;SDS011;13082;52.374;4.946;2023-05-07T11:35:00;15.57;;;11.32;;
25091;SDS011;13082;52.374;4.946;2023-05-07T11:37:26;11.68;;;10.48;;
25091;SDS011;13082;52.374;4.946;2023-05-07T11:40:04;12.35;;;11.02;;
25091;SDS011;13082;52.374;4.946;2023-05-07T11:42:32;13.43;;;11.10;;
25091;SDS011;13082;52.374;4.946;2023-05-07T11:44:59;13.52;;;10.88;;
25091;SDS011;13082;52.374;4.946;2023-05-07T11:47:26;14.10;;;10.85;;
25091;SDS011;13082;52.374;4.946;2023-05-07T11:49:54;12.15;;;10.05;;
25091;SDS011;13082;52.374;4.946;2023-05-07T11:52:21;14.38;;;10.45;;
25091;SDS011;13082;52.374;4.946;2023-05-07T11:54:50;11.57;;;9.93;;
25091;SDS011;13082;52.374;4.946;2023-05-07T11:57:20;11.68;;;10.45;;
25091;SDS011;13082;52.374;4.946;2023-05-07T11:59:47;12.88;;;10.73;;
25091;SDS011;13082;52.374;4.946;2023-05-07T12:02:16;11.90;;;10.00;;
25091;SDS011;13082;52.374;4.946;2023-05-07T12:04:42;11.25;;;9.88;;
25091;SDS011;13082;52.374;4.946;2023-05-07T12:07:14;10.52;;;9.43;;
25091;SDS011;13082;52.374;4.946;2023-05-07T12:09:44;14.65;;;10.43;;
25091;SDS011;13082;52.374;4.946;2023-05-07T12:12:11;12.32;;;10.35;;
25091;SDS011;13082;52.374;4.946;2023-05-07T12:14:41;13.85;;;10.23;;
25091;SDS011;13082;52.374;4.946;2023-05-07T12:17:08;11.20;;;10.00;;
25091;SDS011;13082;52.374;4.946;2023-05-07T12:19:38;11.23;;;8.38;;
25091;SDS011;13082;52.374;4.946;2023-05-07T12:22:04;10.10;;;7.63;;
25091;SDS011;13082;52.374;4.946;2023-05-07T12:24:56;8.45;;;7.30;;
25091;SDS011;13082;52.374;4.946;2023-05-07T12:27:23;8.88;;;7.63;;
25091;SDS011;13082;52.374;4.946;2023-05-07T12:29:49;10.70;;;7.65;;
25091;SDS011;13082;52.374;4.946;2023-05-07T12:32:16;8.45;;;6.97;;
25091;SDS011;13082;52.374;4.946;2023-05-07T12:34:45;13.45;;;7.30;;
25091;SDS011;13082;52.374;4.946;2023-05-07T12:37:14;9.25;;;7.65;;
25091;SDS011;13082;52.374;4.946;2023-05-07T12:39:49;17.70;;;10.23;;
25091;SDS011;13082;52.374;4.946;2023-05-07T12:42:32;14.93;;;10.88;;
25091;SDS011;13082;52.374;4.946;2023-05-07T12:45:07;14.40;;;11.25;;
25091;SDS011;13082;52.374;4.946;2023-05-07T12:47:36;12.95;;;9.93;;
25091;SDS011;13082;52.374;4.946;2023-05-07T12:50:04;13.40;;;11.40;;
25091;SDS011;13082;52.374;4.946;2023-05-07T12:52:31;18.35;;;10.23;;
25091;SDS011;13082;52.374;4.946;2023-05-07T12:54:57;20.25;;;9.93;;
25091;SDS011;13082;52.374;4.946;2023-05-07T12:57:39;16.92;;;10.23;;
25091;SDS011;13082;52.374;4.946;2023-05-07T13:00:12;14.63;;;10.88;;
25091;SDS011;13082;52.374;4.946;2023-05-07T13:02:39;12.60;;;10.02;;
25091;SDS011;13082;52.374;4.946;2023-05-07T13:05:09;10.52;;;9.18;;
25091;SDS011;13082;52.374;4.946;2023-05-07T13:07:35;11.30;;;9.45;;
25091;SDS011;13082;52.374;4.946;2023-05-07T13:10:01;11.23;;;8.43;;
25091;SDS011;13082;52.374;4.946;2023-05-07T13:12:27;10.30;;;8.77;;
25091;SDS011;13082;52.374;4.946;2023-05-07T13:14:53;8.93;;;7.22;;
25091;SDS011;13082;52.374;4.946;2023-05-07T13:17:19;15.82;;;9.43;;
25091;SDS011;13082;52.374;4.946;2023-05-07T13:19:44;13.10;;;9.77;;
25091;SDS011;13082;52.374;4.946;2023-05-07T13:22:10;11.07;;;8.68;;
25091;SDS011;13082;52.374;4.946;2023-05-07T13:24:35;13.18;;;9.38;;
25091;SDS011;13082;52.374;4.946;2023-05-07T13:27:01;11.52;;;8.43;;
25091;SDS011;13082;52.374;4.946;2023-05-07T13:29:27;11.10;;;7.40;;
25091;SDS011;13082;52.374;4.946;2023-05-07T13:31:56;10.13;;;7.57;;
25091;SDS011;13082;52.374;4.946;2023-05-07T13:34:21;11.27;;;7.53;;
25091;SDS011;13082;52.374;4.946;2023-05-07T13:36:47;10.05;;;7.47;;
25091;SDS011;13082;52.374;4.946;2023-05-07T13:39:13;11.43;;;7.78;;
25091;SDS011;13082;52.374;4.946;2023-05-07T13:41:38;9.25;;;7.40;;
25091;SDS011;13082;52.374;4.946;2023-05-07T13:44:04;8.50;;;6.18;;
25091;SDS011;13082;52.374;4.946;2023-05-07T13:46:29;10.60;;;7.97;;
25091;SDS011;13082;52.374;4.946;2023-05-07T13:48:56;8.73;;;6.32;;
25091;SDS011;13082;52.374;4.946;2023-05-07T13:51:21;10.77;;;7.32;;
25091;SDS011;13082;52.374;4.946;2023-05-07T13:53:47;8.57;;;7.10;;
25091;SDS011;13082;52.374;4.946;2023-05-07T13:56:13;9.43;;;8.23;;
25091;SDS011;13082;52.374;4.946;2023-05-07T13:58:39;9.55;;;6.70;;
25091;SDS011;13082;52.374;4.946;2023-05-07T14:01:05;10.65;;;7.43;;
25091;SDS011;13082;52.374;4.946;2023-05-07T14:03:30;17.20;;;10.30;;
25091;SDS011;13082;52.374;4.946;2023-05-07T14:06:00;13.68;;;9.02;;
25091;SDS011;13082;52.374;4.946;2023-05-07T14:08:26;16.70;;;9.50;;
25091;SDS011;13082;52.374;4.946;2023-05-07T14:10:52;12.18;;;9.05;;
25091;SDS011;13082;52.374;4.946;2023-05-07T14:13:18;8.95;;;7.10;;
25091;SDS011;13082;52.374;4.946;2023-05-07T14:15:43;8.25;;;6.43;;
25091;SDS011;13082;52.374;4.946;2023-05-07T14:18:14;12.50;;;7.57;;
25091;SDS011;13082;52.374;4.946;2023-05-07T14:20:40;7.82;;;5.05;;
25091;SDS011;13082;52.374;4.946;2023-05-07T14:23:05;10.18;;;4.70;;
25091;SDS011;13082;52.374;4.946;2023-05-07T14:25:31;6.63;;;4.13;;
25091;SDS011;13082;52.374;4.946;2023-05-07T14:27:57;6.90;;;4.30;;
25091;SDS011;13082;52.374;4.946;2023-05-07T14:30:22;7.03;;;4.97;;
25091;SDS011;13082;52.374;4.946;2023-05-07T14:32:49;8.80;;;3.90;;
25091;SDS011;13082;52.374;4.946;2023-05-07T14:35:15;6.07;;;2.83;;
25091;SDS011;13082;52.374;4.946;2023-05-07T14:37:41;4.70;;;3.00;;
25091;SDS011;13082;52.374;4.946;2023-05-07T14:40:08;4.63;;;2.60;;
25091;SDS011;13082;52.374;4.946;2023-05-07T14:42:34;10.23;;;2.80;;